createdAt,value
2022-09-06T00:01:14.129Z,0.60
2022-09-06T00:04:17.289Z,0.98
2022-09-06T00:07:20.057Z,0.70
2022-09-06T00:10:22.741Z,0.93
2022-09-06T00:13:26.897Z,1.35
2022-09-06T00:16:30.612Z,1.15
2022-09-06T00:19:33.461Z,1.67
2022-09-06T00:22:36.544Z,1.20
2022-09-06T00:25:39.320Z,1.10
2022-09-06T00:28:45.836Z,1.08
2022-09-06T00:31:48.577Z,1.55
2022-09-06T00:34:51.408Z,1.13
2022-09-06T00:37:57.633Z,1.60
2022-09-06T00:41:00.437Z,0.80
2022-09-06T00:44:04.742Z,0.90
2022-09-06T00:47:07.624Z,0.73
2022-09-06T00:50:11.112Z,0.63
2022-09-06T00:53:13.817Z,0.80
2022-09-06T00:56:16.547Z,1.40
2022-09-06T00:59:20.778Z,0.68
2022-09-06T01:02:23.760Z,1.05
2022-09-06T01:05:30.283Z,1.10
2022-09-06T01:08:40.464Z,0.93
2022-09-06T01:11:52.068Z,1.02
2022-09-06T01:15:12.253Z,0.80
2022-09-06T01:18:22.620Z,0.82
2022-09-06T01:21:40.723Z,1.10
2022-09-06T01:24:56.040Z,0.85
2022-09-06T01:28:28.589Z,1.02
2022-09-06T01:31:33.196Z,0.80
2022-09-06T01:34:37.625Z,0.88
2022-09-06T01:37:40.711Z,1.13
2022-09-06T01:40:43.514Z,1.08
2022-09-06T01:43:49.518Z,1.30
2022-09-06T01:46:54.695Z,1.10
2022-09-06T01:50:05.933Z,1.33
2022-09-06T01:53:14.791Z,1.15
2022-09-06T01:56:23.374Z,1.90
2022-09-06T01:59:37.456Z,1.17
2022-09-06T02:02:54.736Z,1.30
2022-09-06T02:05:59.367Z,1.58
2022-09-06T02:09:04.361Z,1.17
2022-09-06T02:12:07.432Z,1.33
2022-09-06T02:15:12.712Z,1.50
2022-09-06T02:18:17.217Z,1.50
2022-09-06T02:21:20.941Z,1.70
2022-09-06T02:24:24.901Z,1.50
2022-09-06T02:27:27.622Z,1.70
2022-09-06T02:30:31.961Z,1.73
2022-09-06T02:33:36.304Z,1.60
2022-09-06T02:36:39.020Z,1.50
2022-09-06T02:39:41.869Z,2.00
2022-09-06T02:42:44.889Z,1.85
2022-09-06T02:45:49.315Z,2.20
2022-09-06T02:48:52.103Z,1.95
2022-09-06T02:51:54.848Z,1.90
2022-09-06T02:54:57.689Z,1.92
2022-09-06T02:58:00.493Z,2.20
2022-09-06T03:01:05.594Z,2.13
2022-09-06T03:04:08.589Z,2.42
2022-09-06T03:07:11.484Z,2.83
2022-09-06T03:10:14.288Z,2.00
2022-09-06T03:13:18.109Z,2.58
2022-09-06T03:16:22.660Z,3.45
2022-09-06T03:19:25.431Z,2.95
2022-09-06T03:22:28.258Z,3.00
2022-09-06T03:25:31.036Z,2.47
2022-09-06T03:28:33.764Z,2.58
2022-09-06T03:31:38.062Z,3.10
2022-09-06T03:34:40.806Z,3.00
2022-09-06T03:37:43.575Z,2.50
2022-09-06T03:40:47.254Z,3.25
2022-09-06T03:43:49.939Z,2.92
2022-09-06T03:46:54.199Z,2.72
2022-09-06T03:49:56.921Z,3.25
2022-09-06T03:52:59.653Z,3.53
2022-09-06T03:56:02.503Z,2.95
2022-09-06T03:59:05.271Z,3.20
2022-09-06T04:02:09.442Z,3.75
2022-09-06T04:05:13.375Z,3.30
2022-09-06T04:08:17.219Z,3.80
2022-09-06T04:11:20.233Z,3.45
2022-09-06T04:14:23.007Z,2.80
2022-09-06T04:17:27.339Z,3.88
2022-09-06T04:20:30.142Z,5.03
2022-09-06T04:23:36.399Z,3.70
2022-09-06T04:26:42.015Z,3.55
2022-09-06T04:29:44.938Z,4.18
2022-09-06T04:32:49.248Z,3.45
2022-09-06T04:35:52.178Z,4.25
2022-09-06T04:38:55.694Z,3.72
2022-09-06T04:41:58.404Z,3.67
2022-09-06T04:45:01.104Z,4.13
2022-09-06T04:48:05.534Z,4.60
2022-09-06T04:51:08.329Z,4.13
2022-09-06T04:54:11.163Z,5.15
2022-09-06T04:57:13.955Z,4.53
2022-09-06T05:00:17.054Z,4.72
2022-09-06T05:03:21.293Z,4.88
2022-09-06T05:06:24.982Z,5.30
2022-09-06T05:09:27.915Z,5.55
2022-09-06T05:12:30.759Z,5.15
2022-09-06T05:15:33.672Z,5.13
2022-09-06T05:18:37.847Z,4.82
2022-09-06T05:21:43.472Z,5.45
2022-09-06T05:24:46.400Z,5.78
2022-09-06T05:27:49.251Z,5.10
2022-09-06T05:30:51.966Z,5.75
2022-09-06T05:33:58.439Z,5.00
2022-09-06T05:37:01.177Z,5.85
2022-09-06T05:40:04.588Z,6.10
2022-09-06T05:43:07.430Z,6.28
2022-09-06T05:46:10.555Z,6.57
2022-09-06T05:49:14.981Z,6.80
2022-09-06T05:52:18.407Z,6.03
2022-09-06T05:55:21.175Z,6.82
2022-09-06T05:58:23.941Z,6.35
2022-09-06T06:01:27.276Z,6.32
2022-09-06T06:04:31.479Z,7.10
2022-09-06T06:07:34.661Z,6.82
2022-09-06T06:10:39.495Z,6.90
2022-09-06T06:13:43.224Z,6.47
2022-09-06T06:16:46.016Z,6.45
2022-09-06T06:19:50.444Z,6.28
2022-09-06T06:22:53.226Z,6.22
2022-09-06T06:25:56.020Z,7.55
2022-09-06T06:29:01.880Z,7.47
2022-09-06T06:32:04.779Z,7.57
2022-09-06T06:35:10.019Z,6.78
2022-09-06T06:38:13.142Z,6.57
2022-09-06T06:41:16.561Z,6.15
2022-09-06T06:44:19.261Z,7.50
2022-09-06T06:47:22.182Z,6.45
2022-09-06T06:50:26.411Z,7.35
2022-09-06T06:53:29.145Z,5.60
2022-09-06T06:56:32.866Z,6.70
2022-09-06T06:59:35.687Z,6.40
2022-09-06T07:02:38.483Z,6.30
2022-09-06T07:09:07.560Z,5.75
2022-09-06T07:12:10.375Z,7.07
2022-09-06T07:15:13.166Z,5.68
2022-09-06T07:18:16.817Z,6.45
2022-09-06T07:21:41.376Z,6.70
2022-09-06T07:24:44.127Z,4.53
2022-09-06T07:27:47.884Z,5.47
2022-09-06T07:30:54.018Z,6.22
2022-09-06T07:33:56.806Z,4.90
2022-09-06T07:37:00.943Z,3.45
2022-09-06T07:40:04.688Z,4.47
2022-09-06T07:43:07.601Z,3.70
2022-09-06T07:46:11.180Z,5.75
2022-09-06T07:49:13.936Z,4.20
2022-09-06T07:55:42.994Z,3.97
2022-09-06T07:58:45.716Z,4.72
2022-09-06T08:01:49.533Z,5.38
2022-09-06T08:04:52.608Z,4.80
2022-09-06T08:11:20.290Z,2.38
2022-09-06T08:14:23.180Z,6.35
2022-09-06T08:17:26.067Z,4.95
2022-09-06T08:20:28.988Z,4.82
2022-09-06T08:23:33.242Z,4.10
2022-09-06T08:26:36.810Z,3.63
2022-09-06T08:29:40.008Z,3.58
2022-09-06T08:32:43.083Z,2.85
2022-09-06T08:35:47.013Z,3.17
2022-09-06T08:38:51.541Z,3.05
2022-09-06T08:41:56.808Z,4.10
2022-09-06T08:45:01.725Z,4.70
2022-09-06T08:48:05.003Z,3.75
2022-09-06T08:51:30.379Z,4.45
2022-09-06T08:54:38.222Z,4.43
2022-09-06T08:57:47.630Z,3.78
2022-09-06T09:00:53.387Z,4.28
2022-09-06T09:03:57.460Z,4.68
2022-09-06T09:07:01.836Z,4.70
2022-09-06T09:10:09.039Z,5.97
2022-09-06T09:13:21.890Z,4.40
2022-09-06T09:16:24.897Z,6.13
2022-09-06T09:19:27.867Z,6.60
2022-09-06T09:22:30.762Z,5.85
2022-09-06T09:25:35.292Z,5.95
2022-09-06T09:28:38.172Z,5.35
2022-09-06T09:31:41.890Z,4.18
2022-09-06T09:34:44.971Z,5.40
2022-09-06T09:37:49.698Z,6.05
2022-09-06T09:40:57.845Z,5.85
2022-09-06T09:44:04.764Z,5.53
2022-09-06T09:47:16.114Z,6.25
2022-09-06T09:50:27.520Z,6.60
2022-09-06T09:53:30.549Z,5.88
2022-09-06T09:56:41.755Z,6.10
2022-09-06T09:59:45.894Z,6.43
2022-09-06T10:02:48.715Z,5.95
2022-09-06T10:06:02.231Z,4.90
2022-09-06T10:09:31.204Z,5.68
2022-09-06T10:12:39.081Z,4.93
2022-09-06T10:15:42.216Z,5.15
2022-09-06T10:18:45.776Z,4.75
2022-09-06T10:21:48.790Z,4.95
2022-09-06T10:25:00.692Z,5.28
2022-09-06T10:28:33.252Z,5.15
2022-09-06T10:32:05.836Z,5.72
2022-09-06T10:35:16.419Z,5.85
2022-09-06T10:38:32.858Z,5.25
2022-09-06T10:41:49.344Z,5.43
2022-09-06T10:45:12.931Z,6.45
2022-09-06T10:48:19.445Z,6.35
2022-09-06T10:51:25.057Z,6.50
2022-09-06T10:54:28.553Z,5.40
2022-09-06T11:00:59.095Z,5.97
2022-09-06T11:04:09.134Z,5.80
2022-09-06T11:07:17.797Z,4.80
2022-09-06T11:10:23.457Z,4.80
2022-09-06T11:13:29.621Z,4.50
2022-09-06T11:16:40.162Z,3.90
2022-09-06T11:19:46.101Z,4.43
2022-09-06T11:23:14.156Z,5.25
2022-09-06T11:26:29.761Z,4.45
2022-09-06T11:29:33.012Z,2.67
2022-09-06T11:32:39.946Z,3.05
2022-09-06T11:35:43.280Z,2.13
2022-09-06T11:38:55.948Z,2.00
2022-09-06T11:41:58.968Z,1.90
2022-09-06T11:45:24.538Z,1.75
2022-09-06T11:49:04.027Z,2.28
2022-09-06T11:52:59.375Z,2.20
2022-09-06T11:56:19.160Z,1.92
2022-09-06T11:59:38.277Z,2.10
2022-09-06T12:02:43.596Z,2.75
2022-09-06T12:06:16.800Z,2.08
2022-09-06T12:09:30.606Z,1.52
2022-09-06T12:12:42.306Z,1.85
2022-09-06T12:15:46.449Z,1.50
2022-09-06T12:19:02.594Z,1.30
2022-09-06T12:22:06.178Z,1.57
2022-09-06T12:25:17.094Z,1.60
2022-09-06T12:28:30.490Z,1.65
2022-09-06T12:31:37.980Z,1.65
2022-09-06T12:34:41.046Z,1.70
2022-09-06T12:37:51.242Z,1.50
2022-09-06T12:40:58.569Z,1.70
2022-09-06T12:44:03.250Z,1.75
2022-09-06T12:47:08.214Z,1.73
2022-09-06T12:50:14.895Z,1.83
2022-09-06T12:53:25.066Z,1.73
2022-09-06T12:56:28.630Z,1.80
2022-09-06T12:59:33.517Z,1.52
2022-09-06T13:02:38.547Z,1.48
2022-09-06T13:05:41.936Z,1.45
2022-09-06T13:08:47.058Z,1.45
2022-09-06T13:11:51.507Z,1.33
2022-09-06T13:14:56.043Z,1.80
2022-09-06T13:18:20.111Z,1.63
2022-09-06T13:21:27.636Z,1.67
2022-09-06T13:24:45.833Z,1.98
2022-09-06T13:27:51.158Z,1.90
2022-09-06T13:31:06.114Z,1.55
2022-09-06T13:34:08.896Z,1.80
2022-09-06T13:37:11.922Z,2.40
2022-09-06T13:41:07.065Z,1.83
2022-09-06T13:44:07.844Z,1.95
2022-09-06T13:47:11.939Z,2.38
2022-09-06T13:50:15.936Z,2.03
2022-09-06T13:53:20.510Z,2.33
2022-09-06T13:56:23.290Z,1.98
2022-09-06T13:59:26.486Z,1.70
2022-09-06T14:02:30.860Z,2.45
2022-09-06T14:05:34.612Z,2.22
2022-09-06T14:09:03.325Z,1.92
2022-09-06T14:12:02.243Z,1.52
2022-09-06T14:15:05.858Z,2.17
2022-09-06T14:18:14.259Z,2.05
2022-09-06T14:21:17.318Z,1.95
2022-09-06T14:24:20.207Z,1.58
2022-09-06T14:27:23.222Z,1.67
2022-09-06T14:30:26.045Z,1.52
2022-09-06T14:33:30.194Z,1.98
2022-09-06T14:36:33.194Z,1.50
2022-09-06T14:39:35.939Z,1.30
2022-09-06T14:42:38.806Z,1.50
2022-09-06T14:45:41.647Z,1.67
2022-09-06T14:48:46.051Z,1.60
2022-09-06T14:51:48.771Z,1.20
2022-09-06T14:54:51.521Z,1.88
2022-09-06T14:57:54.443Z,1.50
2022-09-06T15:00:57.157Z,1.20
2022-09-06T15:04:03.282Z,1.27
2022-09-06T15:07:11.924Z,1.40
2022-09-06T15:10:14.590Z,0.98
2022-09-06T15:13:18.334Z,1.40
2022-09-06T15:16:21.382Z,1.40
2022-09-06T15:19:25.736Z,1.35
2022-09-06T15:22:28.580Z,1.35
2022-09-06T15:25:32.093Z,1.60
2022-09-06T15:28:37.067Z,1.52
2022-09-06T15:31:40.062Z,1.42
2022-09-06T15:34:44.320Z,1.25
2022-09-06T15:37:48.630Z,1.70
2022-09-06T15:40:52.012Z,1.52
2022-09-06T15:43:56.655Z,1.48
2022-09-06T15:46:59.369Z,1.23
2022-09-06T15:50:03.550Z,1.52
2022-09-06T15:53:06.262Z,1.40
2022-09-06T15:56:10.144Z,1.30
2022-09-06T15:59:13.217Z,1.48
2022-09-06T16:02:16.116Z,1.10
2022-09-06T16:08:45.628Z,1.60
2022-09-06T16:11:48.614Z,3.15
2022-09-06T16:14:52.060Z,1.50
2022-09-06T16:17:55.656Z,1.60
2022-09-06T16:21:00.026Z,1.50
2022-09-06T16:24:03.503Z,1.67
2022-09-06T16:27:06.205Z,1.10
2022-09-06T16:30:10.047Z,1.23
2022-09-06T16:33:12.809Z,1.55
2022-09-06T16:36:17.293Z,1.10
2022-09-06T16:39:20.046Z,1.23
2022-09-06T16:42:22.880Z,4.85
2022-09-06T16:45:25.640Z,1.33
2022-09-06T16:48:28.709Z,5.88
2022-09-06T16:51:32.995Z,2.60
2022-09-06T16:54:36.474Z,0.95
2022-09-06T16:57:39.772Z,1.00
2022-09-06T17:00:42.638Z,1.10
2022-09-06T17:03:45.358Z,1.35
2022-09-06T17:06:49.634Z,1.88
2022-09-06T17:09:52.411Z,1.35
2022-09-06T17:12:55.241Z,1.00
2022-09-06T17:16:17.204Z,1.35
2022-09-06T17:19:22.797Z,1.42
2022-09-06T17:22:26.846Z,1.15
2022-09-06T17:25:29.633Z,1.17
2022-09-06T17:29:13.969Z,1.17
2022-09-06T17:32:16.676Z,1.30
2022-09-06T17:35:19.449Z,0.93
2022-09-06T17:38:23.598Z,1.17
2022-09-06T17:41:28.013Z,1.00
2022-09-06T17:44:30.685Z,1.38
2022-09-06T17:47:36.323Z,1.30
2022-09-06T17:50:41.429Z,1.13
2022-09-06T17:53:46.774Z,1.30
2022-09-06T17:56:49.553Z,1.30
2022-09-06T17:59:52.300Z,1.13
2022-09-06T18:02:55.190Z,1.92
2022-09-06T18:06:03.560Z,1.15
2022-09-06T18:09:09.556Z,1.33
2022-09-06T18:12:12.323Z,1.27
2022-09-06T18:15:15.033Z,1.65
2022-09-06T18:18:18.004Z,1.45
2022-09-06T18:21:20.796Z,1.55
2022-09-06T18:24:25.216Z,1.50
2022-09-06T18:27:28.264Z,1.20
2022-09-06T18:30:30.950Z,1.55
2022-09-06T18:33:35.002Z,1.50
2022-09-06T18:36:38.042Z,1.90
2022-09-06T18:39:42.953Z,2.67
2022-09-06T18:42:45.730Z,3.42
2022-09-06T18:45:48.638Z,3.95
2022-09-06T18:48:51.386Z,5.22
2022-09-06T18:51:54.141Z,4.50
2022-09-06T18:54:58.390Z,4.85
2022-09-06T18:58:03.804Z,4.70
2022-09-06T19:01:07.778Z,4.35
2022-09-06T19:04:10.862Z,3.88
2022-09-06T19:07:13.698Z,5.40
2022-09-06T19:10:18.153Z,5.45
2022-09-06T19:13:21.490Z,5.22
2022-09-06T19:16:24.695Z,5.20
2022-09-06T19:19:27.763Z,4.75
2022-09-06T19:22:30.564Z,5.10
2022-09-06T19:25:34.745Z,4.88
2022-09-06T19:28:37.959Z,4.97
2022-09-06T19:31:40.892Z,3.80
2022-09-06T19:34:43.847Z,4.63
2022-09-06T19:37:46.647Z,4.50
2022-09-06T19:40:50.802Z,4.22
2022-09-06T19:43:54.157Z,4.60
2022-09-06T19:46:57.079Z,4.75
2022-09-06T19:49:59.875Z,4.72
2022-09-06T19:53:07.062Z,4.35
2022-09-06T19:56:11.957Z,4.80
2022-09-06T19:59:15.318Z,4.80
2022-09-06T20:02:18.629Z,5.55
2022-09-06T20:05:21.578Z,5.70
2022-09-06T20:08:24.304Z,5.47
2022-09-06T20:11:29.584Z,5.75
2022-09-06T20:14:32.323Z,4.50
2022-09-06T20:17:35.108Z,4.70
2022-09-06T20:20:37.942Z,4.15
2022-09-06T20:23:40.630Z,5.05
2022-09-06T20:26:45.515Z,4.35
2022-09-06T20:29:48.202Z,4.28
2022-09-06T20:32:50.976Z,5.20
2022-09-06T20:35:57.526Z,4.88
2022-09-06T20:39:00.226Z,4.88
2022-09-06T20:42:04.523Z,5.00
2022-09-06T20:45:08.926Z,5.00
2022-09-06T20:48:11.734Z,5.30
2022-09-06T20:51:15.584Z,4.50
2022-09-06T20:54:18.294Z,4.10
2022-09-06T20:57:22.390Z,4.50
2022-09-06T21:00:25.264Z,4.32
2022-09-06T21:03:28.040Z,4.68
2022-09-06T21:06:33.681Z,4.32
2022-09-06T21:09:36.849Z,4.28
2022-09-06T21:12:40.903Z,3.25
2022-09-06T21:15:43.615Z,2.78
2022-09-06T21:18:46.373Z,2.30
2022-09-06T21:21:49.006Z,2.40
2022-09-06T21:24:51.650Z,4.80
2022-09-06T21:27:56.022Z,5.47
2022-09-06T21:31:02.962Z,4.93
2022-09-06T21:37:09.169Z,2.50
2022-09-06T21:40:13.008Z,3.00
2022-09-06T21:43:17.212Z,2.40
2022-09-06T21:46:20.758Z,2.28
2022-09-06T21:49:23.648Z,2.28
2022-09-06T21:52:26.381Z,2.20
2022-09-06T21:55:29.097Z,2.05
2022-09-06T21:58:33.713Z,2.38
2022-09-06T22:01:37.055Z,2.22
2022-09-06T22:04:39.704Z,2.38
2022-09-06T22:07:42.756Z,2.30
2022-09-06T22:10:45.521Z,2.13
2022-09-06T22:13:50.145Z,2.40
2022-09-06T22:16:53.524Z,2.67
2022-09-06T22:19:56.229Z,3.08
2022-09-06T22:22:59.058Z,3.17
2022-09-06T22:26:02.880Z,4.18
2022-09-06T22:29:08.403Z,3.42
2022-09-06T22:32:11.595Z,3.88
2022-09-06T22:35:16.736Z,3.60
2022-09-06T22:38:19.623Z,3.72
2022-09-06T22:41:22.466Z,3.83
2022-09-06T22:44:26.627Z,3.58
2022-09-06T22:47:29.521Z,3.97
2022-09-06T22:50:32.460Z,3.17
2022-09-06T22:53:35.378Z,3.63
2022-09-06T22:56:38.452Z,2.25
2022-09-06T22:59:42.660Z,1.75
2022-09-06T23:02:45.412Z,1.83
2022-09-06T23:05:48.153Z,1.58
2022-09-06T23:08:50.914Z,1.73
2022-09-06T23:11:53.782Z,1.50
2022-09-06T23:14:58.283Z,1.75
2022-09-06T23:18:01.183Z,1.73
2022-09-06T23:21:07.871Z,1.90
2022-09-06T23:24:10.665Z,2.00
2022-09-06T23:27:13.346Z,2.60
2022-09-06T23:30:17.488Z,2.50
2022-09-06T23:33:20.255Z,3.03
2022-09-06T23:36:23.000Z,2.78
2022-09-06T23:39:25.841Z,2.75
2022-09-06T23:42:28.685Z,2.50
2022-09-06T23:45:33.065Z,2.50
2022-09-06T23:48:36.172Z,1.80
2022-09-06T23:51:39.160Z,1.60
2022-09-06T23:54:42.050Z,1.10
2022-09-06T23:57:44.900Z,1.35
